createdAt,value
2022-09-27T00:02:56.303Z,58.12
2022-09-27T00:06:05.414Z,58.60
2022-09-27T00:09:08.163Z,59.32
2022-09-27T00:12:11.217Z,59.33
2022-09-27T00:15:14.009Z,59.67
2022-09-27T00:18:16.970Z,59.91
2022-09-27T00:21:21.214Z,59.42
2022-09-27T00:24:24.252Z,59.65
2022-09-27T00:27:28.140Z,60.07
2022-09-27T00:30:30.916Z,59.15
2022-09-27T00:33:33.690Z,59.61
2022-09-27T00:36:37.850Z,59.71
2022-09-27T00:39:40.519Z,58.73
2022-09-27T00:42:43.269Z,59.57
2022-09-27T00:45:51.202Z,60.40
2022-09-27T00:49:04.850Z,60.17
2022-09-27T00:52:14.140Z,59.91
2022-09-27T00:55:20.434Z,59.20
2022-09-27T00:58:28.540Z,59.43
2022-09-27T01:01:31.625Z,59.74
2022-09-27T01:04:36.544Z,59.77
2022-09-27T01:07:40.702Z,59.91
2022-09-27T01:10:53.346Z,59.98
2022-09-27T01:14:24.151Z,59.70
2022-09-27T01:17:41.424Z,58.83
2022-09-27T01:21:20.696Z,58.35
2022-09-27T01:24:37.414Z,59.34
2022-09-27T01:28:12.689Z,60.13
2022-09-27T01:31:25.447Z,59.45
2022-09-27T01:34:36.519Z,58.89
2022-09-27T01:37:48.604Z,60.00
2022-09-27T01:40:58.831Z,59.63
2022-09-27T01:44:05.068Z,59.87
2022-09-27T01:47:16.455Z,59.77
2022-09-27T01:50:25.545Z,59.98
2022-09-27T01:53:33.313Z,58.99
2022-09-27T01:56:41.692Z,59.55
2022-09-27T01:59:48.672Z,60.38
2022-09-27T02:02:58.266Z,59.29
2022-09-27T02:06:09.079Z,59.32
2022-09-27T02:09:15.547Z,59.52
2022-09-27T02:12:24.109Z,59.31
2022-09-27T02:15:28.114Z,60.16
2022-09-27T02:18:36.415Z,59.97
2022-09-27T02:21:48.281Z,60.05
2022-09-27T02:24:57.660Z,60.47
2022-09-27T02:28:10.589Z,60.00
2022-09-27T02:31:13.635Z,60.47
2022-09-27T02:34:22.350Z,59.80
2022-09-27T02:37:25.067Z,58.95
2022-09-27T02:40:33.257Z,59.65
2022-09-27T02:43:36.029Z,59.76
2022-09-27T02:47:14.418Z,59.04
2022-09-27T02:50:37.053Z,59.91
2022-09-27T02:53:49.119Z,59.57
2022-09-27T02:57:02.243Z,60.51
2022-09-27T03:00:08.921Z,59.99
2022-09-27T03:03:16.277Z,59.89
2022-09-27T03:06:23.775Z,60.05
2022-09-27T03:09:30.914Z,59.68
2022-09-27T03:12:34.740Z,59.83
2022-09-27T03:15:37.375Z,60.29
2022-09-27T03:18:40.208Z,59.79
2022-09-27T03:21:44.145Z,60.93
2022-09-27T03:24:46.864Z,61.21
2022-09-27T03:27:49.735Z,61.99
2022-09-27T03:30:52.843Z,62.65
2022-09-27T03:33:55.672Z,62.35
2022-09-27T03:36:59.628Z,63.10
2022-09-27T03:40:02.706Z,62.92
2022-09-27T03:43:05.350Z,62.79
2022-09-27T03:46:08.180Z,63.79
2022-09-27T03:49:11.033Z,64.05
2022-09-27T03:52:15.229Z,63.35
2022-09-27T03:55:18.048Z,63.40
2022-09-27T03:58:20.704Z,64.58
2022-09-27T04:01:23.458Z,64.47
2022-09-27T04:04:26.260Z,64.22
2022-09-27T04:07:31.236Z,64.75
2022-09-27T04:10:33.885Z,64.81
2022-09-27T04:13:36.500Z,65.26
2022-09-27T04:16:39.270Z,65.12
2022-09-27T04:19:41.945Z,65.42
2022-09-27T04:22:46.098Z,66.07
2022-09-27T04:25:49.077Z,65.32
2022-09-27T04:28:54.719Z,65.89
2022-09-27T04:31:57.779Z,66.06
2022-09-27T04:35:17.919Z,65.61
2022-09-27T04:38:24.207Z,65.66
2022-09-27T04:41:28.709Z,65.02
2022-09-27T04:44:31.611Z,66.42
2022-09-27T04:47:34.385Z,66.67
2022-09-27T04:50:37.877Z,65.71
2022-09-27T04:53:41.959Z,67.75
2022-09-27T04:56:44.577Z,67.72
2022-09-27T04:59:47.241Z,68.17
2022-09-27T05:02:50.142Z,69.74
2022-09-27T05:05:52.897Z,69.63
2022-09-27T05:08:58.507Z,68.94
2022-09-27T05:12:01.345Z,68.78
2022-09-27T05:15:04.582Z,68.81
2022-09-27T05:18:08.252Z,69.12
2022-09-27T05:21:11.041Z,69.18
2022-09-27T05:24:15.124Z,70.82
2022-09-27T05:27:20.253Z,70.89
2022-09-27T05:30:22.900Z,69.80
2022-09-27T05:33:25.685Z,69.98
2022-09-27T05:36:28.540Z,71.00
2022-09-27T05:39:32.509Z,71.05
2022-09-27T05:42:35.997Z,72.67
2022-09-27T05:45:38.915Z,73.85
2022-09-27T05:48:41.641Z,73.22
2022-09-27T05:51:44.419Z,71.43
2022-09-27T05:54:48.398Z,71.34
2022-09-27T05:57:58.806Z,72.85
2022-09-27T06:01:01.598Z,72.77
2022-09-27T06:04:05.553Z,71.63
2022-09-27T06:07:08.390Z,72.12
2022-09-27T06:10:12.463Z,72.40
2022-09-27T06:13:17.299Z,72.49
2022-09-27T06:16:20.065Z,73.23
2022-09-27T06:19:22.850Z,73.78
2022-09-27T06:22:25.549Z,73.50
2022-09-27T06:25:29.579Z,74.42
2022-09-27T06:28:32.695Z,72.95
2022-09-27T06:31:35.337Z,73.10
2022-09-27T06:34:38.093Z,72.56
2022-09-27T06:37:40.714Z,73.86
2022-09-27T06:40:46.517Z,72.58
2022-09-27T06:43:49.492Z,72.74
2022-09-27T06:46:52.858Z,73.42
2022-09-27T06:49:55.511Z,74.16
2022-09-27T06:52:58.129Z,73.07
2022-09-27T06:56:03.117Z,74.02
2022-09-27T06:59:23.350Z,74.04
2022-09-27T07:02:27.841Z,73.00
2022-09-27T07:05:31.385Z,73.02
2022-09-27T07:08:35.898Z,73.64
2022-09-27T07:11:40.200Z,74.90
2022-09-27T07:14:42.833Z,74.26
2022-09-27T07:17:45.622Z,74.23
2022-09-27T07:20:48.260Z,74.28
2022-09-27T07:23:51.116Z,74.04
2022-09-27T07:26:55.060Z,73.81
2022-09-27T07:29:57.697Z,74.35
2022-09-27T07:33:00.804Z,75.90
2022-09-27T07:36:08.728Z,75.38
2022-09-27T07:39:11.602Z,75.35
2022-09-27T07:42:15.606Z,75.74
2022-09-27T07:45:18.651Z,75.10
2022-09-27T07:48:21.376Z,73.58
2022-09-27T07:51:24.309Z,74.39
2022-09-27T07:54:27.049Z,73.13
2022-09-27T07:57:31.016Z,75.62
2022-09-27T08:00:33.883Z,74.77
2022-09-27T08:03:36.514Z,75.26
2022-09-27T08:06:39.373Z,73.98
2022-09-27T08:09:42.026Z,74.98
2022-09-27T08:12:46.439Z,75.46
2022-09-27T08:15:50.936Z,74.07
2022-09-27T08:18:54.385Z,74.61
2022-09-27T08:21:58.989Z,73.21
2022-09-27T08:25:01.796Z,74.47
2022-09-27T08:28:06.365Z,72.44
2022-09-27T08:31:08.943Z,73.30
2022-09-27T08:34:11.596Z,74.92
2022-09-27T08:37:14.425Z,74.54
2022-09-27T08:40:18.227Z,72.49
2022-09-27T08:43:36.758Z,73.64
2022-09-27T08:46:50.893Z,74.16
2022-09-27T08:49:59.678Z,72.96
2022-09-27T08:53:08.632Z,73.97
2022-09-27T08:56:13.129Z,74.26
2022-09-27T08:59:21.825Z,72.48
2022-09-27T09:02:26.442Z,73.99
2022-09-27T09:05:32.047Z,72.86
2022-09-27T09:08:43.575Z,73.60
2022-09-27T09:12:17.748Z,72.98
2022-09-27T09:15:31.020Z,73.07
2022-09-27T09:18:54.357Z,73.63
2022-09-27T09:22:05.402Z,73.23
2022-09-27T09:25:22.595Z,72.56
2022-09-27T09:28:37.321Z,72.92
2022-09-27T09:31:48.731Z,71.96
2022-09-27T09:34:58.388Z,72.48
2022-09-27T09:38:06.491Z,71.97
2022-09-27T09:41:17.514Z,71.29
2022-09-27T09:44:26.009Z,71.09
2022-09-27T09:47:37.307Z,70.70
2022-09-27T09:50:45.337Z,70.69
2022-09-27T09:53:54.026Z,70.81
2022-09-27T09:57:03.483Z,70.26
2022-09-27T10:00:14.246Z,70.77
2022-09-27T10:03:19.590Z,70.46
2022-09-27T10:06:22.509Z,69.79
2022-09-27T10:09:27.465Z,70.73
2022-09-27T10:12:30.447Z,70.17
2022-09-27T10:15:34.229Z,71.31
2022-09-27T10:18:44.110Z,70.73
2022-09-27T10:21:52.144Z,69.85
2022-09-27T10:24:57.877Z,69.05
2022-09-27T10:28:01.145Z,68.51
2022-09-27T10:31:06.131Z,68.19
2022-09-27T10:34:20.145Z,67.46
2022-09-27T10:37:24.730Z,67.06
2022-09-27T10:40:30.474Z,68.01
2022-09-27T10:43:35.272Z,67.19
2022-09-27T10:46:39.032Z,68.35
2022-09-27T10:49:45.058Z,68.56
2022-09-27T10:52:47.859Z,68.06
2022-09-27T10:55:52.794Z,67.98
2022-09-27T10:58:56.122Z,67.53
2022-09-27T11:01:59.695Z,68.15
2022-09-27T11:05:15.358Z,68.98
2022-09-27T11:08:24.533Z,67.02
2022-09-27T11:11:29.805Z,63.21
2022-09-27T11:14:33.017Z,62.50
2022-09-27T11:17:45.570Z,63.26
2022-09-27T11:20:54.539Z,61.92
2022-09-27T11:24:13.311Z,64.18
2022-09-27T11:27:26.542Z,65.65
2022-09-27T11:30:38.180Z,63.20
2022-09-27T11:33:56.823Z,64.85
2022-09-27T11:37:17.699Z,61.49
2022-09-27T11:40:31.759Z,63.49
2022-09-27T11:44:04.643Z,64.96
2022-09-27T11:47:17.589Z,66.35
2022-09-27T11:50:51.213Z,68.85
2022-09-27T11:54:07.159Z,71.27
2022-09-27T11:57:19.007Z,72.25
2022-09-27T12:00:24.559Z,72.92
2022-09-27T12:03:42.460Z,72.79
2022-09-27T12:06:55.895Z,74.64
2022-09-27T12:10:04.769Z,74.67
2022-09-27T12:13:11.441Z,73.46
2022-09-27T12:16:17.499Z,75.72
2022-09-27T12:19:24.576Z,73.75
2022-09-27T12:22:57.202Z,74.83
2022-09-27T12:26:04.040Z,75.31
2022-09-27T12:29:13.861Z,75.14
2022-09-27T12:32:22.034Z,73.33
2022-09-27T12:35:28.765Z,75.07
2022-09-27T12:38:41.453Z,75.56
2022-09-27T12:41:52.623Z,76.84
2022-09-27T12:44:55.278Z,75.48
2022-09-27T12:48:08.997Z,74.58
2022-09-27T12:51:13.731Z,74.34
2022-09-27T12:54:34.981Z,74.64
2022-09-27T12:57:50.573Z,72.45
2022-09-27T13:00:59.288Z,75.01
2022-09-27T13:04:16.485Z,73.84
2022-09-27T13:07:32.308Z,75.36
2022-09-27T13:10:47.807Z,73.74
2022-09-27T13:13:56.222Z,73.68
2022-09-27T13:16:59.052Z,74.77
2022-09-27T13:20:49.338Z,75.65
2022-09-27T13:23:53.438Z,74.23
2022-09-27T13:26:56.468Z,75.56
2022-09-27T13:30:48.442Z,75.68
2022-09-27T13:33:52.688Z,74.43
2022-09-27T13:36:55.291Z,74.90
2022-09-27T13:40:21.767Z,75.04
2022-09-27T13:44:07.322Z,74.95
2022-09-27T13:47:33.039Z,75.29
2022-09-27T13:50:46.562Z,74.26
2022-09-27T13:53:58.916Z,72.78
2022-09-27T13:57:06.538Z,74.18
2022-09-27T14:00:15.237Z,73.89
2022-09-27T14:03:52.876Z,73.27
2022-09-27T14:07:00.017Z,73.79
2022-09-27T14:10:04.221Z,74.85
2022-09-27T14:13:08.265Z,74.93
2022-09-27T14:16:16.448Z,72.32
2022-09-27T14:19:22.679Z,71.51
2022-09-27T14:22:25.977Z,72.77
2022-09-27T14:25:28.915Z,73.95
2022-09-27T14:28:42.230Z,70.76
2022-09-27T14:31:45.009Z,72.27
2022-09-27T14:34:47.841Z,72.47
2022-09-27T14:37:52.789Z,72.48
2022-09-27T14:41:00.216Z,73.66
2022-09-27T14:44:04.273Z,74.14
2022-09-27T14:47:10.705Z,74.68
2022-09-27T14:50:19.495Z,75.01
2022-09-27T14:53:24.141Z,73.24
2022-09-27T14:56:30.363Z,74.72
2022-09-27T14:59:37.840Z,74.51
2022-09-27T15:02:42.694Z,73.63
2022-09-27T15:05:45.753Z,74.86
2022-09-27T15:08:50.413Z,74.40
2022-09-27T15:12:00.857Z,74.08
2022-09-27T15:15:07.101Z,74.04
2022-09-27T15:18:31.835Z,74.26
2022-09-27T15:21:37.423Z,74.77
2022-09-27T15:24:44.545Z,74.57
2022-09-27T15:27:52.619Z,74.72
2022-09-27T15:30:58.282Z,74.58
2022-09-27T15:34:01.218Z,74.78
2022-09-27T15:37:06.478Z,74.27
2022-09-27T15:40:49.461Z,74.27
2022-09-27T15:43:53.489Z,74.12
2022-09-27T15:46:57.347Z,74.52
2022-09-27T15:50:00.404Z,74.24
2022-09-27T15:53:05.443Z,74.32
2022-09-27T15:56:08.148Z,70.70
2022-09-27T15:59:17.927Z,70.83
2022-09-27T16:02:21.839Z,70.44
2022-09-27T16:05:24.951Z,69.61
2022-09-27T16:08:27.902Z,70.73
2022-09-27T16:11:30.599Z,72.04
2022-09-27T16:14:33.024Z,72.40
2022-09-27T16:17:38.625Z,72.74
2022-09-27T16:20:41.898Z,73.13
2022-09-27T16:23:44.560Z,74.71
2022-09-27T16:26:47.125Z,75.30
2022-09-27T16:29:49.946Z,76.03
2022-09-27T16:32:54.475Z,75.36
2022-09-27T16:35:57.058Z,76.35
2022-09-27T16:38:59.816Z,76.90
2022-09-27T16:42:05.792Z,76.00
2022-09-27T16:45:12.645Z,75.63
2022-09-27T16:48:18.511Z,75.88
2022-09-27T16:51:40.148Z,75.82
2022-09-27T16:54:43.637Z,75.99
2022-09-27T16:57:46.214Z,78.12
2022-09-27T17:00:49.393Z,75.50
2022-09-27T17:03:57.482Z,75.61
2022-09-27T17:07:00.986Z,75.98
2022-09-27T17:10:03.571Z,76.00
2022-09-27T17:13:07.293Z,76.04
2022-09-27T17:16:10.906Z,75.57
2022-09-27T17:19:15.838Z,75.24
2022-09-27T17:22:19.037Z,75.84
2022-09-27T17:25:21.621Z,75.44
2022-09-27T17:28:24.497Z,76.48
2022-09-27T17:31:27.508Z,75.67
2022-09-27T17:34:32.250Z,76.19
2022-09-27T17:37:34.810Z,75.83
2022-09-27T17:40:37.941Z,75.63
2022-09-27T17:43:43.744Z,75.52
2022-09-27T17:46:47.687Z,75.46
2022-09-27T17:50:09.087Z,75.66
2022-09-27T17:53:11.666Z,75.53
2022-09-27T17:56:14.804Z,74.91
2022-09-27T17:59:18.633Z,74.88
2022-09-27T18:02:21.606Z,75.23
2022-09-27T18:05:25.752Z,75.29
2022-09-27T18:08:32.256Z,75.67
2022-09-27T18:11:35.476Z,75.37
2022-09-27T18:14:38.037Z,75.30
2022-09-27T18:17:40.735Z,75.53
2022-09-27T18:20:44.624Z,76.19
2022-09-27T18:23:47.329Z,76.42
2022-09-27T18:26:49.920Z,76.37
2022-09-27T18:29:52.600Z,76.08
2022-09-27T18:32:55.166Z,74.93
2022-09-27T18:36:03.091Z,75.43
2022-09-27T18:39:09.377Z,75.00
2022-09-27T18:42:11.949Z,75.42
2022-09-27T18:45:14.651Z,75.46
2022-09-27T18:48:17.269Z,75.71
2022-09-27T18:51:24.339Z,75.45
2022-09-27T18:54:26.997Z,75.37
2022-09-27T18:57:32.872Z,75.25
2022-09-27T19:00:35.620Z,75.62
2022-09-27T19:03:38.431Z,75.28
2022-09-27T19:06:43.617Z,74.77
2022-09-27T19:09:46.178Z,74.21
2022-09-27T19:12:49.034Z,74.31
2022-09-27T19:15:55.797Z,74.63
2022-09-27T19:18:58.546Z,74.90
2022-09-27T19:22:02.635Z,74.94
2022-09-27T19:25:06.175Z,75.50
2022-09-27T19:28:08.847Z,74.92
2022-09-27T19:31:14.481Z,75.20
2022-09-27T19:34:17.379Z,74.90
2022-09-27T19:37:21.368Z,74.72
2022-09-27T19:40:23.987Z,74.39
2022-09-27T19:43:26.772Z,74.89
2022-09-27T19:46:29.472Z,74.73
2022-09-27T19:49:32.225Z,73.70
2022-09-27T19:52:36.133Z,76.65
2022-09-27T19:55:38.821Z,76.02
2022-09-27T19:58:42.628Z,76.23
2022-09-27T20:01:45.347Z,74.29
2022-09-27T20:04:47.969Z,74.46
2022-09-27T20:07:53.863Z,73.58
2022-09-27T20:11:01.333Z,73.21
2022-09-27T20:14:06.439Z,73.83
2022-09-27T20:17:09.644Z,72.98
2022-09-27T20:20:12.193Z,73.13
2022-09-27T20:23:20.007Z,72.71
2022-09-27T20:26:24.473Z,71.98
2022-09-27T20:29:27.136Z,71.57
2022-09-27T20:32:29.885Z,71.45
2022-09-27T20:35:32.923Z,72.35
2022-09-27T20:38:37.047Z,71.81
2022-09-27T20:41:41.889Z,71.57
2022-09-27T20:44:44.659Z,71.93
2022-09-27T20:47:47.225Z,72.18
2022-09-27T20:50:49.938Z,71.40
2022-09-27T20:53:54.399Z,71.88
2022-09-27T20:56:57.104Z,71.70
2022-09-27T20:59:59.692Z,71.21
2022-09-27T21:03:02.367Z,71.42
2022-09-27T21:06:05.667Z,71.37
2022-09-27T21:09:10.744Z,70.25
2022-09-27T21:12:13.455Z,70.71
2022-09-27T21:15:16.255Z,71.32
2022-09-27T21:18:20.155Z,69.44
2022-09-27T21:21:24.623Z,70.47
2022-09-27T21:24:28.623Z,71.60
2022-09-27T21:27:31.201Z,71.23
2022-09-27T21:30:36.344Z,70.55
2022-09-27T21:33:39.702Z,69.73
2022-09-27T21:36:42.440Z,71.13
2022-09-27T21:39:46.412Z,69.09
2022-09-27T21:42:56.929Z,70.21
2022-09-27T21:46:04.457Z,70.26
2022-09-27T21:49:07.383Z,70.87
2022-09-27T21:52:10.069Z,70.47
2022-09-27T21:55:14.050Z,70.13
2022-09-27T21:58:16.810Z,68.82
2022-09-27T22:01:21.730Z,70.26
2022-09-27T22:04:24.482Z,70.21
2022-09-27T22:07:27.058Z,70.18
2022-09-27T22:10:31.101Z,70.10
2022-09-27T22:13:34.309Z,69.78
2022-09-27T22:16:37.363Z,69.91
2022-09-27T22:19:40.117Z,67.40
2022-09-27T22:22:42.687Z,70.03
2022-09-27T22:25:47.004Z,69.70
2022-09-27T22:28:50.043Z,69.92
2022-09-27T22:31:52.727Z,69.41
2022-09-27T22:34:55.309Z,68.97
2022-09-27T22:37:58.213Z,69.47
2022-09-27T22:41:03.542Z,69.40
2022-09-27T22:44:06.255Z,68.81
2022-09-27T22:47:09.092Z,69.50
2022-09-27T22:50:11.791Z,70.39
2022-09-27T22:53:15.287Z,69.84
2022-09-27T22:56:21.432Z,70.08
2022-09-27T22:59:24.975Z,69.67
2022-09-27T23:02:27.519Z,69.84
2022-09-27T23:05:30.183Z,70.34
2022-09-27T23:08:35.187Z,69.91
2022-09-27T23:11:39.249Z,69.37
2022-09-27T23:14:42.677Z,70.44
2022-09-27T23:17:45.574Z,70.38
2022-09-27T23:20:48.092Z,70.50
2022-09-27T23:23:52.899Z,70.70
2022-09-27T23:27:10.704Z,70.44
2022-09-27T23:30:14.456Z,70.97
2022-09-27T23:33:17.035Z,70.31
2022-09-27T23:36:22.616Z,70.45
2022-09-27T23:39:25.132Z,69.25
2022-09-27T23:42:29.169Z,70.69
2022-09-27T23:45:33.399Z,70.84
2022-09-27T23:48:36.814Z,71.08
2022-09-27T23:51:39.493Z,70.41
2022-09-27T23:54:42.064Z,70.79
2022-09-27T23:57:46.088Z,70.93
